Time;durP1;ratioP1;P1;durP2;ratioP2;P2;SDS_P1;SDS_P2;PMS_P1;PMS_P2;Temp;Humidity;BMP_temperature;BMP_pressure;BME280_temperature;BME280_humidity;BME280_pressure;Samples;Min_cycle;Max_cycle;Signal;HPM_P1;HPM_P2
2023/09/13 00:02:05;;;;;;;8.50;5.40;;;26.00;99.90;;;;;;5003464;28;20537;-52
2023/09/13 00:04:32;;;;;;;7.43;5.40;;;26.00;99.90;;;;;;5003746;28;20455;-50
2023/09/13 00:06:59;;;;;;;7.30;5.00;;;26.00;99.90;;;;;;5004108;28;20501;-52
2023/09/13 00:09:27;;;;;;;5.60;5.07;;;26.00;99.90;;;;;;5005870;28;20473;-47
2023/09/13 00:11:53;;;;;;;6.37;5.00;;;26.00;99.90;;;;;;5007612;28;20462;-53
2023/09/13 00:14:20;;;;;;;8.20;5.50;;;26.00;99.90;;;;;;5006651;28;20458;-49
2023/09/13 00:16:47;;;;;;;5.20;4.70;;;26.00;99.90;;;;;;5007803;28;20476;-48
2023/09/13 00:19:15;;;;;;;5.07;4.67;;;26.00;99.90;;;;;;5006208;28;20474;-48
2023/09/13 00:21:43;;;;;;;10.60;4.43;;;25.90;99.90;;;;;;5009089;28;20472;-53
2023/09/13 00:24:10;;;;;;;5.87;5.23;;;25.90;99.90;;;;;;5008479;28;20486;-50
2023/09/13 00:26:38;;;;;;;5.37;4.97;;;25.90;99.90;;;;;;5009669;28;21017;-50
2023/09/13 00:29:05;;;;;;;5.53;5.13;;;25.90;99.90;;;;;;5011419;28;20497;-48
2023/09/13 00:31:32;;;;;;;5.57;5.07;;;25.90;99.90;;;;;;5007959;28;20470;-53
2023/09/13 00:33:58;;;;;;;5.57;4.77;;;25.90;99.90;;;;;;5007993;28;21001;-44
2023/09/13 00:36:25;;;;;;;6.37;5.70;;;25.90;99.90;;;;;;5008762;28;20463;-54
2023/09/13 00:38:52;;;;;;;5.20;4.77;;;25.90;99.90;;;;;;5009824;28;20462;-52
2023/09/13 00:41:19;;;;;;;6.20;5.70;;;25.90;99.90;;;;;;5013025;28;20451;-57
2023/09/13 00:43:48;;;;;;;4.87;4.57;;;25.90;99.90;;;;;;5009900;28;20605;-58
2023/09/13 00:46:15;;;;;;;5.40;4.90;;;25.90;99.90;;;;;;5007479;28;20483;-49
2023/09/13 00:48:43;;;;;;;5.17;4.77;;;25.90;99.90;;;;;;5010247;28;20519;-53
2023/09/13 00:51:10;;;;;;;5.20;4.80;;;25.80;99.90;;;;;;5011000;28;20486;-48
2023/09/13 00:53:37;;;;;;;4.73;4.33;;;25.90;99.90;;;;;;5008606;28;20466;-50
2023/09/13 00:56:04;;;;;;;4.57;4.20;;;25.80;99.90;;;;;;5008804;28;20856;-54
2023/09/13 00:58:32;;;;;;;5.40;5.00;;;25.80;99.90;;;;;;5008433;28;20855;-52
2023/09/13 01:01:00;;;;;;;6.90;5.47;;;25.80;99.90;;;;;;5009031;28;20464;-53
2023/09/13 01:03:27;;;;;;;5.43;4.93;;;25.80;99.90;;;;;;5009939;22;20508;-49
2023/09/13 01:05:55;;;;;;;5.10;4.70;;;25.80;99.90;;;;;;4987038;28;20483;-50
2023/09/13 01:08:22;;;;;;;5.23;4.83;;;25.80;99.90;;;;;;4990497;28;20479;-48
2023/09/13 01:10:49;;;;;;;5.20;4.70;;;25.80;99.90;;;;;;4986956;28;20486;-47
2023/09/13 01:13:16;;;;;;;5.80;5.10;;;25.80;99.90;;;;;;4987703;28;20510;-52
2023/09/13 01:15:50;;;;;;;5.77;5.27;;;25.80;99.90;;;;;;4980144;28;20475;-50
2023/09/13 01:18:22;;;;;;;4.90;4.50;;;25.80;99.90;;;;;;4986894;28;20467;-49
2023/09/13 01:21:05;;;;;;;5.60;5.10;;;25.80;99.90;;;;;;4983896;28;20455;-50
2023/09/13 01:23:47;;;;;;;4.80;4.40;;;25.70;99.90;;;;;;4991106;28;20832;-50
2023/09/13 01:26:45;;;;;;;4.80;4.50;;;25.70;99.90;;;;;;4985706;28;20493;-53
2023/09/13 01:29:15;;;;;;;5.67;5.10;;;25.70;99.90;;;;;;4989017;28;20486;-49
2023/09/13 01:31:42;;;;;;;7.90;4.83;;;25.70;99.90;;;;;;4985855;28;20464;-50
2023/09/13 01:34:10;;;;;;;5.23;4.83;;;25.70;99.90;;;;;;4988394;28;20590;-47
2023/09/13 01:36:37;;;;;;;5.97;5.37;;;25.70;99.90;;;;;;4985722;28;20475;-49
2023/09/13 01:39:04;;;;;;;5.33;4.93;;;25.70;99.90;;;;;;4987271;28;20459;-50
2023/09/13 01:41:37;;;;;;;5.40;5.00;;;25.70;99.90;;;;;;4984013;28;20463;-47
2023/09/13 01:44:05;;;;;;;4.43;4.03;;;25.70;99.90;;;;;;4988472;28;21196;-48
2023/09/13 01:46:36;;;;;;;4.80;4.40;;;25.70;99.90;;;;;;4986157;28;20483;-51
2023/09/13 01:49:05;;;;;;;4.60;4.30;;;25.70;99.90;;;;;;4988540;28;20463;-49
2023/09/13 01:51:33;;;;;;;5.43;5.00;;;25.70;99.90;;;;;;4984455;28;20467;-48
2023/09/13 01:54:00;;;;;;;4.77;4.37;;;25.70;99.90;;;;;;4986947;28;20550;-50
2023/09/13 01:56:27;;;;;;;4.67;4.37;;;25.70;99.90;;;;;;4981910;28;20472;-51
2023/09/13 01:58:54;;;;;;;4.80;4.50;;;25.70;99.90;;;;;;4981149;28;20467;-51
2023/09/13 02:01:21;;;;;;;4.73;4.20;;;25.70;99.90;;;;;;4982291;28;20469;-51
2023/09/13 02:03:49;;;;;;;4.83;4.43;;;25.70;99.90;;;;;;4986470;28;20471;-47
2023/09/13 02:06:15;;;;;;;4.87;4.47;;;25.60;99.90;;;;;;4982503;28;20476;-49
2023/09/13 02:08:43;;;;;;;4.77;4.27;;;25.60;99.90;;;;;;4981739;28;20491;-51
2023/09/13 02:11:10;;;;;;;4.00;3.70;;;25.60;99.90;;;;;;4982961;28;20474;-48
2023/09/13 02:13:37;;;;;;;4.97;4.57;;;25.60;99.90;;;;;;4981793;28;20465;-50
2023/09/13 02:16:04;;;;;;;5.90;5.40;;;25.60;99.90;;;;;;4985567;28;20459;-51
2023/09/13 02:18:32;;;;;;;5.13;4.70;;;25.60;99.90;;;;;;4983608;28;20856;-52
2023/09/13 02:21:00;;;;;;;4.60;4.20;;;25.60;99.90;;;;;;4986636;28;20473;-48
2023/09/13 02:23:26;;;;;;;6.27;5.80;;;25.60;99.90;;;;;;4986698;28;20468;-49
2023/09/13 02:25:54;;;;;;;4.87;4.47;;;25.60;99.90;;;;;;4986791;28;21019;-48
2023/09/13 02:28:21;;;;;;;4.40;4.10;;;25.60;99.90;;;;;;4984206;28;20756;-48
2023/09/13 02:30:48;;;;;;;4.30;4.00;;;25.60;99.90;;;;;;4980243;28;20468;-51
2023/09/13 02:33:14;;;;;;;6.13;5.53;;;25.60;99.90;;;;;;4984444;28;20460;-47
2023/09/13 02:35:41;;;;;;;5.40;5.00;;;25.60;99.90;;;;;;4984220;28;20828;-48
2023/09/13 02:38:09;;;;;;;5.33;4.93;;;25.60;99.90;;;;;;4984414;28;20459;-49
2023/09/13 02:40:37;;;;;;;5.30;4.53;;;25.60;99.90;;;;;;4986961;28;20467;-48
2023/09/13 02:43:04;;;;;;;4.87;4.57;;;25.50;99.90;;;;;;4987440;28;20474;-48
2023/09/13 02:45:31;;;;;;;4.67;4.33;;;25.50;99.90;;;;;;4986756;28;21048;-49
2023/09/13 02:47:58;;;;;;;4.47;4.17;;;25.50;99.90;;;;;;4989047;28;20458;-50
2023/09/13 02:50:25;;;;;;;4.30;4.00;;;25.50;99.90;;;;;;4990349;28;20478;-50
2023/09/13 02:52:52;;;;;;;3.93;3.63;;;25.50;99.90;;;;;;4988142;28;20459;-48
2023/09/13 02:55:20;;;;;;;4.20;3.90;;;25.50;99.90;;;;;;4991248;28;20472;-47
2023/09/13 02:57:47;;;;;;;4.43;4.03;;;25.50;99.90;;;;;;4991230;28;20459;-49
2023/09/13 03:00:14;;;;;;;4.03;3.73;;;25.50;99.90;;;;;;4988405;28;21421;-49
2023/09/13 03:02:41;;;;;;;4.70;4.30;;;25.50;99.90;;;;;;4988039;28;20487;-51
2023/09/13 03:05:08;;;;;;;5.60;4.80;;;25.50;99.90;;;;;;4985130;28;21062;-50
2023/09/13 03:07:35;;;;;;;4.43;4.07;;;25.50;99.90;;;;;;4986508;28;20506;-50
2023/09/13 03:10:02;;;;;;;4.77;4.37;;;25.50;99.90;;;;;;4982899;28;20471;-48
2023/09/13 03:12:30;;;;;;;4.23;3.93;;;25.50;99.90;;;;;;4982316;28;20460;-50
2023/09/13 03:14:57;;;;;;;4.27;3.97;;;25.50;99.90;;;;;;4983794;28;20818;-49
2023/09/13 03:17:24;;;;;;;3.93;3.70;;;25.50;99.90;;;;;;4986378;28;20468;-50
2023/09/13 03:19:50;;;;;;;4.57;4.27;;;25.50;99.90;;;;;;4986727;28;20469;-51
2023/09/13 03:22:17;;;;;;;5.10;4.40;;;25.50;99.90;;;;;;4987152;28;20463;-52
2023/09/13 03:24:44;;;;;;;4.60;4.20;;;25.50;99.90;;;;;;4989875;28;20471;-49
2023/09/13 03:27:11;;;;;;;5.10;4.70;;;25.50;99.90;;;;;;4990496;28;21092;-51
2023/09/13 03:29:39;;;;;;;5.20;4.80;;;25.50;99.90;;;;;;4987341;28;20502;-52
2023/09/13 03:32:06;;;;;;;4.90;4.50;;;25.50;99.90;;;;;;4990746;28;20497;-47
2023/09/13 03:34:33;;;;;;;4.60;4.20;;;25.40;99.90;;;;;;4989659;28;20463;-48
2023/09/13 03:37:00;;;;;;;5.00;4.70;;;25.40;99.90;;;;;;4988656;28;20900;-52
2023/09/13 03:39:28;;;;;;;4.17;3.87;;;25.40;99.90;;;;;;4989456;28;20470;-50
2023/09/13 03:41:56;;;;;;;4.50;4.10;;;25.40;99.90;;;;;;4989402;28;20543;-48
2023/09/13 03:44:22;;;;;;;4.37;4.07;;;25.40;99.90;;;;;;4989508;28;20582;-49
2023/09/13 03:46:50;;;;;;;4.23;3.93;;;25.40;99.90;;;;;;4989034;28;20493;-50
2023/09/13 03:49:17;;;;;;;5.00;4.60;;;25.40;99.90;;;;;;4990114;28;20470;-49
2023/09/13 03:51:44;;;;;;;4.83;4.43;;;25.40;99.90;;;;;;4987740;28;20468;-49
2023/09/13 03:54:11;;;;;;;5.20;4.80;;;25.40;99.90;;;;;;4981640;28;20502;-52
2023/09/13 03:56:37;;;;;;;4.87;4.47;;;25.40;99.90;;;;;;4983028;28;20832;-49
2023/09/13 03:59:04;;;;;;;3.50;3.30;;;25.40;99.90;;;;;;4988087;28;20895;-50
2023/09/13 04:01:31;;;;;;;4.73;4.37;;;25.40;99.90;;;;;;4984763;28;20825;-49
2023/09/13 04:03:59;;;;;;;4.70;4.40;;;25.40;99.90;;;;;;4984315;28;20468;-50
2023/09/13 04:06:26;;;;;;;4.43;4.13;;;25.40;99.90;;;;;;4988178;28;21000;-47
2023/09/13 04:08:53;;;;;;;4.30;4.00;;;25.40;99.90;;;;;;4987142;28;20994;-49
2023/09/13 04:11:19;;;;;;;5.90;4.23;;;25.40;99.90;;;;;;4985060;28;20811;-48
2023/09/13 04:13:46;;;;;;;4.50;4.17;;;25.40;99.90;;;;;;4981103;28;20466;-49
2023/09/13 04:16:15;;;;;;;4.47;4.17;;;25.40;99.90;;;;;;4985351;28;20808;-47
2023/09/13 04:18:42;;;;;;;4.97;4.57;;;25.40;99.90;;;;;;4987500;28;20460;-50
2023/09/13 04:21:10;;;;;;;3.73;3.50;;;25.40;99.90;;;;;;4987357;28;21382;-48
2023/09/13 04:23:37;;;;;;;5.17;4.67;;;25.30;99.90;;;;;;4986383;28;20471;-47
2023/09/13 04:26:04;;;;;;;5.10;4.70;;;25.30;99.90;;;;;;4987102;28;20451;-48
2023/09/13 04:28:30;;;;;;;4.13;3.73;;;25.30;99.90;;;;;;4983692;28;20491;-47
2023/09/13 04:30:59;;;;;;;4.60;4.20;;;25.30;99.90;;;;;;4986459;28;20981;-49
2023/09/13 04:33:51;;;;;;;4.37;4.07;;;25.30;99.90;;;;;;4984815;28;21000;-49
2023/09/13 04:36:19;;;;;;;4.07;3.67;;;25.40;99.90;;;;;;4985958;28;20469;-49
2023/09/13 04:38:47;;;;;;;4.03;3.67;;;25.40;99.90;;;;;;4985709;28;20479;-47
2023/09/13 04:41:15;;;;;;;4.73;4.33;;;25.30;99.90;;;;;;4984376;28;20994;-48
2023/09/13 04:43:42;;;;;;;5.13;4.73;;;25.30;99.90;;;;;;4984418;28;20468;-50
2023/09/13 04:46:09;;;;;;;4.43;4.03;;;25.30;99.90;;;;;;4990343;28;20459;-48
2023/09/13 04:48:36;;;;;;;5.23;4.83;;;25.30;99.90;;;;;;4992201;28;20981;-47
2023/09/13 04:51:04;;;;;;;4.13;3.83;;;25.30;99.90;;;;;;4994004;28;20460;-47
2023/09/13 04:53:33;;;;;;;4.27;3.97;;;25.30;99.90;;;;;;4990365;28;20896;-50
2023/09/13 04:56:01;;;;;;;5.10;4.60;;;25.30;99.90;;;;;;4981599;28;20511;-52
2023/09/13 04:58:28;;;;;;;4.30;4.00;;;25.30;99.90;;;;;;4990930;28;20479;-52
2023/09/13 05:00:55;;;;;;;4.20;3.90;;;25.30;99.90;;;;;;4994508;28;20466;-50
2023/09/13 05:03:22;;;;;;;4.37;4.07;;;25.30;99.90;;;;;;4992964;28;20463;-47
2023/09/13 05:05:48;;;;;;;5.07;4.57;;;25.30;99.90;;;;;;4988867;28;20467;-52
2023/09/13 05:08:15;;;;;;;4.03;3.73;;;25.30;99.90;;;;;;4993740;28;20929;-52
2023/09/13 05:10:45;;;;;;;4.13;3.83;;;25.30;99.90;;;;;;4990368;28;20516;-48
2023/09/13 05:13:12;;;;;;;4.47;4.00;;;25.30;99.90;;;;;;4985977;28;20468;-51
2023/09/13 05:15:43;;;;;;;4.73;4.40;;;25.30;99.90;;;;;;4988292;28;20474;-49
2023/09/13 05:18:10;;;;;;;4.80;4.43;;;25.30;99.90;;;;;;4993122;28;20529;-51
2023/09/13 05:20:37;;;;;;;4.63;4.33;;;25.30;99.90;;;;;;4990000;28;20468;-49
2023/09/13 05:23:04;;;;;;;4.13;3.83;;;25.30;99.90;;;;;;4992113;28;20849;-52
2023/09/13 05:25:31;;;;;;;4.30;4.00;;;25.30;99.90;;;;;;4990436;28;20471;-49
2023/09/13 05:27:59;;;;;;;3.83;3.60;;;25.30;99.90;;;;;;4986493;28;21018;-49
2023/09/13 05:30:30;;;;;;;4.03;3.73;;;25.30;99.90;;;;;;4989707;28;20469;-48
2023/09/13 05:32:57;;;;;;;4.57;4.17;;;25.30;99.90;;;;;;4988502;28;20824;-52
2023/09/13 05:35:23;;;;;;;4.30;4.00;;;25.30;99.90;;;;;;4987845;28;20471;-48
2023/09/13 05:37:50;;;;;;;3.80;3.50;;;25.20;99.90;;;;;;4989614;28;20475;-52
2023/09/13 05:40:17;;;;;;;3.87;3.57;;;25.20;99.90;;;;;;4988906;28;20471;-50
2023/09/13 05:42:43;;;;;;;6.87;5.10;;;25.30;99.90;;;;;;4988614;28;20471;-49
2023/09/13 05:45:12;;;;;;;4.33;4.03;;;25.30;99.90;;;;;;4984945;28;20468;-48
2023/09/13 05:47:38;;;;;;;3.70;3.40;;;25.30;99.90;;;;;;4989876;28;20479;-50
2023/09/13 05:50:06;;;;;;;3.37;3.17;;;25.20;99.90;;;;;;4983921;28;20817;-49
2023/09/13 05:52:33;;;;;;;4.67;4.37;;;25.20;99.90;;;;;;4985430;28;20464;-51
2023/09/13 05:55:00;;;;;;;3.70;3.40;;;25.20;99.90;;;;;;4984865;28;20475;-49
2023/09/13 05:57:28;;;;;;;3.50;3.20;;;25.20;99.90;;;;;;4985654;28;20470;-48
2023/09/13 05:59:54;;;;;;;4.00;3.70;;;25.20;99.90;;;;;;4983824;28;20490;-47
2023/09/13 06:02:22;;;;;;;4.27;3.87;;;25.20;99.90;;;;;;4979686;28;20474;-50
2023/09/13 06:04:49;;;;;;;3.93;3.40;;;25.20;99.90;;;;;;4983508;28;20463;-48
2023/09/13 06:07:16;;;;;;;4.03;3.73;;;25.20;99.90;;;;;;4983690;28;20483;-46
2023/09/13 06:09:43;;;;;;;3.60;3.40;;;25.20;99.90;;;;;;4986969;28;20467;-50
2023/09/13 06:12:10;;;;;;;4.30;4.00;;;25.20;99.90;;;;;;4985230;28;20463;-48
2023/09/13 06:14:37;;;;;;;3.80;3.50;;;25.20;99.90;;;;;;4982961;28;20472;-50
2023/09/13 06:17:04;;;;;;;3.13;2.90;;;25.20;99.90;;;;;;4989361;28;20481;-48
2023/09/13 06:19:33;;;;;;;4.03;3.73;;;25.20;99.90;;;;;;4986093;28;20482;-48
2023/09/13 06:22:00;;;;;;;3.30;3.10;;;25.20;99.90;;;;;;4992285;28;20805;-48
2023/09/13 06:24:26;;;;;;;3.60;3.30;;;25.20;99.90;;;;;;4990124;28;20472;-47
2023/09/13 06:26:55;;;;;;;3.40;3.20;;;25.20;99.90;;;;;;4986898;28;20474;-47
2023/09/13 06:29:22;;;;;;;3.57;3.27;;;25.20;99.90;;;;;;4984936;28;20507;-47
2023/09/13 06:31:49;;;;;;;4.23;3.83;;;25.20;99.90;;;;;;4982679;28;20469;-47
2023/09/13 06:34:15;;;;;;;4.23;3.93;;;25.20;99.90;;;;;;4983194;28;20464;-50
2023/09/13 06:36:43;;;;;;;3.43;3.23;;;25.20;99.90;;;;;;4979891;28;20460;-47
2023/09/13 06:39:10;;;;;;;3.63;3.33;;;25.20;99.90;;;;;;4986897;28;20463;-47
2023/09/13 06:41:37;;;;;;;4.37;3.73;;;25.20;99.90;;;;;;4986950;28;20467;-49
2023/09/13 06:44:09;;;;;;;4.20;3.60;;;25.20;99.90;;;;;;4984432;28;20491;-50
2023/09/13 06:46:36;;;;;;;4.20;3.80;;;25.20;99.90;;;;;;4986523;28;20463;-49
2023/09/13 06:49:03;;;;;;;5.90;3.50;;;25.20;99.90;;;;;;4986283;28;20480;-50
2023/09/13 06:51:29;;;;;;;4.17;3.87;;;25.20;99.90;;;;;;4988353;28;20459;-47
2023/09/13 06:53:57;;;;;;;4.17;3.33;;;25.20;99.90;;;;;;4986894;28;20459;-51
2023/09/13 06:56:24;;;;;;;3.87;3.57;;;25.20;99.90;;;;;;4989619;28;20499;-51
2023/09/13 06:58:52;;;;;;;3.63;3.33;;;25.20;99.90;;;;;;4987234;28;20563;-51
2023/09/13 07:01:20;;;;;;;4.13;3.83;;;25.20;99.90;;;;;;4985940;28;20463;-48
2023/09/13 07:03:47;;;;;;;4.30;4.00;;;25.20;99.90;;;;;;4984627;28;20471;-46
2023/09/13 07:06:13;;;;;;;3.90;3.60;;;25.20;99.90;;;;;;4987030;28;20460;-47
2023/09/13 07:08:40;;;;;;;4.40;4.07;;;25.20;99.90;;;;;;4985807;28;21057;-49
2023/09/13 07:11:09;;;;;;;6.40;3.80;;;25.20;99.90;;;;;;4984466;28;20815;-54
2023/09/13 07:13:36;;;;;;;4.80;4.40;;;25.20;99.90;;;;;;4982330;28;20460;-48
2023/09/13 07:16:02;;;;;;;3.40;3.20;;;25.20;99.90;;;;;;4986208;28;20482;-48
2023/09/13 07:18:29;;;;;;;4.10;3.80;;;25.20;99.90;;;;;;4989186;28;20490;-48
2023/09/13 07:20:56;;;;;;;4.60;4.23;;;25.20;99.90;;;;;;4989502;28;20464;-47
2023/09/13 07:23:23;;;;;;;4.53;4.13;;;25.20;99.90;;;;;;4988904;28;20455;-46
2023/09/13 07:25:50;;;;;;;4.87;4.40;;;25.20;99.90;;;;;;4985636;28;20486;-47
2023/09/13 07:28:18;;;;;;;5.07;4.67;;;25.20;99.90;;;;;;4984857;28;20487;-48
2023/09/13 07:30:45;;;;;;;5.20;4.80;;;25.20;99.90;;;;;;4990732;28;20470;-51
2023/09/13 07:33:11;;;;;;;4.40;4.00;;;25.20;99.90;;;;;;4983809;28;20471;-49
2023/09/13 07:35:37;;;;;;;4.93;4.53;;;25.20;99.90;;;;;;4981053;28;20463;-48
2023/09/13 07:38:04;;;;;;;4.90;4.50;;;25.20;99.90;;;;;;4988339;28;20960;-47
2023/09/13 07:40:31;;;;;;;5.53;4.80;;;25.10;99.90;;;;;;4984709;28;20197;-48
2023/09/13 07:42:58;;;;;;;5.60;5.20;;;25.10;99.90;;;;;;4983074;28;20464;-49
2023/09/13 07:45:31;;;;;;;5.07;4.67;;;25.10;99.90;;;;;;4977352;28;20464;-51
2023/09/13 07:47:59;;;;;;;5.47;5.07;;;25.10;99.90;;;;;;4980329;28;20487;-49
2023/09/13 07:50:30;;;;;;;7.90;5.10;;;25.10;99.90;;;;;;4984036;28;20696;-47
2023/09/13 07:52:57;;;;;;;6.37;5.77;;;25.10;99.90;;;;;;4983172;28;21030;-48
2023/09/13 07:55:24;;;;;;;6.90;6.37;;;25.10;99.90;;;;;;4978498;28;20468;-47
2023/09/13 07:57:51;;;;;;;9.37;8.27;;;25.10;99.90;;;;;;4983640;28;20829;-49
2023/09/13 08:00:18;;;;;;;11.50;8.87;;;25.10;99.90;;;;;;4980780;28;22234;-48
2023/09/13 08:02:48;;;;;;;13.70;12.30;;;25.10;99.90;;;;;;4981617;28;20915;-49
2023/09/13 08:05:15;;;;;;;13.53;12.13;;;25.10;99.90;;;;;;4979706;28;20495;-47
2023/09/13 08:07:42;;;;;;;17.50;15.80;;;25.10;99.90;;;;;;4985068;28;21354;-50
2023/09/13 08:10:08;;;;;;;15.93;14.33;;;25.10;99.90;;;;;;4989078;28;20460;-48
2023/09/13 08:12:35;;;;;;;17.90;16.10;;;25.10;99.90;;;;;;4985766;28;20458;-47
2023/09/13 08:15:03;;;;;;;15.63;14.13;;;25.10;99.90;;;;;;4987223;28;21152;-51
2023/09/13 08:17:29;;;;;;;16.97;15.23;;;25.10;99.90;;;;;;4986209;28;20470;-48
2023/09/13 08:19:58;;;;;;;16.00;14.40;;;25.10;99.90;;;;;;4988354;28;20471;-49
2023/09/13 08:22:25;;;;;;;16.97;15.37;;;25.10;99.90;;;;;;4988648;28;21084;-49
2023/09/13 08:24:51;;;;;;;15.07;13.57;;;25.10;99.90;;;;;;4987856;28;20486;-47
2023/09/13 08:27:18;;;;;;;15.80;14.30;;;25.00;99.90;;;;;;4986868;28;20459;-48
2023/09/13 08:29:45;;;;;;;19.70;17.70;;;25.00;99.90;;;;;;4988852;28;21073;-49
2023/09/13 08:32:11;;;;;;;20.73;18.70;;;25.00;99.90;;;;;;4986493;28;20456;-47
2023/09/13 08:34:38;;;;;;;19.80;17.67;;;25.00;99.90;;;;;;4987734;28;20486;-50
2023/09/13 08:37:06;;;;;;;18.73;17.00;;;25.00;99.90;;;;;;4989661;28;20470;-49
2023/09/13 08:39:33;;;;;;;22.20;20.03;;;25.00;99.90;;;;;;4991248;28;20976;-47
2023/09/13 08:42:00;;;;;;;21.63;19.33;;;24.90;99.90;;;;;;4983871;28;20819;-49
2023/09/13 08:44:28;;;;;;;17.40;15.70;;;24.90;99.90;;;;;;4987861;28;20463;-48
2023/09/13 08:46:59;;;;;;;17.73;15.80;;;24.90;99.90;;;;;;4986982;28;21377;-47
2023/09/13 08:49:26;;;;;;;15.53;14.00;;;24.90;99.90;;;;;;4981593;28;20482;-51
2023/09/13 08:51:54;;;;;;;13.20;11.90;;;24.90;99.90;;;;;;4975728;28;20644;-52
2023/09/13 08:54:22;;;;;;;13.90;11.27;;;24.90;99.90;;;;;;4976176;28;20486;-50
2023/09/13 08:56:49;;;;;;;14.30;12.90;;;24.90;99.90;;;;;;4983571;28;20495;-50
2023/09/13 08:59:17;;;;;;;13.87;12.37;;;24.90;99.90;;;;;;4992603;28;20521;-50
2023/09/13 09:01:47;;;;;;;16.03;12.07;;;25.00;99.90;;;;;;4983632;28;20494;-49
2023/09/13 09:04:15;;;;;;;13.60;12.20;;;24.90;99.90;;;;;;4986951;28;20911;-49
2023/09/13 09:06:43;;;;;;;15.30;12.00;;;24.90;99.90;;;;;;4981136;28;20467;-52
2023/09/13 09:09:10;;;;;;;13.10;11.60;;;25.00;99.90;;;;;;4989339;28;20474;-48
2023/09/13 09:11:41;;;;;;;14.60;13.10;;;24.90;99.90;;;;;;4989546;28;20463;-50
2023/09/13 09:14:11;;;;;;;13.37;11.90;;;24.90;99.90;;;;;;4988308;28;20891;-49
2023/09/13 09:16:40;;;;;;;13.40;11.97;;;24.90;99.90;;;;;;4987692;28;20579;-48
2023/09/13 09:19:07;;;;;;;14.43;13.10;;;24.90;99.90;;;;;;4983790;28;20472;-49
2023/09/13 09:21:35;;;;;;;15.30;11.60;;;24.90;99.90;;;;;;4985522;28;20470;-49
2023/09/13 09:24:02;;;;;;;12.97;11.67;;;24.90;99.90;;;;;;4987645;28;20475;-50
2023/09/13 09:26:28;;;;;;;16.57;13.13;;;25.00;99.90;;;;;;4985745;28;20469;-51
2023/09/13 09:29:11;;;;;;;12.53;11.30;;;24.90;99.90;;;;;;4992129;28;22111;-48
2023/09/13 09:31:38;;;;;;;12.30;11.00;;;24.90;99.90;;;;;;4982032;28;20515;-49
2023/09/13 09:34:05;;;;;;;12.40;10.23;;;25.00;99.90;;;;;;4984099;28;20464;-49
2023/09/13 09:36:34;;;;;;;12.80;10.93;;;24.90;99.90;;;;;;4984944;28;20475;-48
2023/09/13 09:39:03;;;;;;;11.90;9.73;;;25.00;99.90;;;;;;4984902;28;20514;-53
2023/09/13 09:41:32;;;;;;;10.60;9.60;;;25.00;99.90;;;;;;4986705;28;20833;-47
2023/09/13 09:44:00;;;;;;;11.43;10.43;;;25.00;99.90;;;;;;4985094;28;20608;-49
2023/09/13 09:46:27;;;;;;;11.77;10.77;;;25.00;99.90;;;;;;4988359;28;20479;-50
2023/09/13 09:48:55;;;;;;;12.97;10.90;;;25.00;99.90;;;;;;4986894;28;20482;-49
2023/09/13 09:51:22;;;;;;;13.33;12.03;;;25.00;99.90;;;;;;4981011;28;20474;-48
2023/09/13 09:53:48;;;;;;;11.70;9.83;;;25.00;99.90;;;;;;4982979;28;20475;-49
2023/09/13 09:56:17;;;;;;;11.90;8.70;;;25.00;99.90;;;;;;4982280;28;20471;-52
2023/09/13 09:58:46;;;;;;;10.80;9.70;;;25.00;99.90;;;;;;4984979;28;20475;-53
2023/09/13 10:01:16;;;;;;;11.17;9.87;;;25.00;99.90;;;;;;4985312;28;20474;-50
2023/09/13 10:03:43;;;;;;;10.73;9.63;;;25.00;99.90;;;;;;4984082;28;20474;-54
2023/09/13 10:06:11;;;;;;;10.20;9.30;;;25.00;99.90;;;;;;4980090;28;20525;-52
2023/09/13 10:08:43;;;;;;;10.57;8.40;;;25.00;99.90;;;;;;4983727;28;20487;-52
2023/09/13 10:11:11;;;;;;;8.37;7.57;;;25.00;99.90;;;;;;4983946;28;20881;-52
2023/09/13 10:13:39;;;;;;;8.50;7.70;;;25.00;99.90;;;;;;4965163;28;20455;-55
2023/09/13 10:16:07;;;;;;;10.60;7.77;;;25.00;99.90;;;;;;4981452;28;20460;-57
2023/09/13 10:18:39;;;;;;;5.97;5.47;;;25.00;99.90;;;;;;4983390;28;20459;-55
2023/09/13 10:21:07;;;;;;;4.67;4.27;;;24.90;99.90;;;;;;4982463;28;20493;-50
2023/09/13 10:23:39;;;;;;;8.23;5.30;;;24.90;99.90;;;;;;4984027;28;20526;-52
2023/09/13 10:26:09;;;;;;;4.87;3.90;;;24.90;99.90;;;;;;4987870;28;20461;-51
2023/09/13 10:28:39;;;;;;;5.20;3.33;;;24.90;99.90;;;;;;4989620;28;20924;-51
2023/09/13 10:31:11;;;;;;;4.20;3.90;;;24.90;99.90;;;;;;4984116;28;20460;-55
2023/09/13 10:33:43;;;;;;;4.20;3.80;;;24.90;99.90;;;;;;4985859;28;20821;-52
2023/09/13 10:36:16;;;;;;;4.20;3.43;;;24.90;99.90;;;;;;4982052;28;20467;-57
2023/09/13 10:38:46;;;;;;;4.60;4.27;;;24.90;99.90;;;;;;4988894;28;20463;-55
2023/09/13 10:41:17;;;;;;;5.60;4.03;;;25.00;99.90;;;;;;4985511;28;21048;-49
2023/09/13 10:43:44;;;;;;;4.60;4.10;;;25.00;99.90;;;;;;4986389;28;20463;-55
2023/09/13 10:46:11;;;;;;;4.33;3.47;;;25.00;99.90;;;;;;4973784;28;21262;-52
2023/09/13 10:48:40;;;;;;;5.23;3.27;;;25.00;99.90;;;;;;4981047;28;20515;-47
2023/09/13 10:51:08;;;;;;;2.53;2.20;;;25.00;99.90;;;;;;4985905;28;20463;-51
2023/09/13 10:53:37;;;;;;;2.27;2.07;;;25.00;99.90;;;;;;4990134;28;20460;-52
2023/09/13 10:56:04;;;;;;;5.80;2.43;;;25.00;99.90;;;;;;4987541;28;20498;-55
2023/09/13 10:58:32;;;;;;;3.83;2.27;;;25.00;99.90;;;;;;4987014;28;20463;-53
2023/09/13 11:00:58;;;;;;;4.70;2.77;;;25.00;99.90;;;;;;4984795;28;20470;-54
2023/09/13 11:03:25;;;;;;;2.33;2.13;;;25.00;99.90;;;;;;4988538;28;20483;-55
2023/09/13 11:05:57;;;;;;;2.60;1.90;;;25.00;99.90;;;;;;4978532;28;21063;-55
2023/09/13 11:08:31;;;;;;;2.37;2.17;;;25.00;99.90;;;;;;4980687;28;20759;-54
2023/09/13 11:11:08;;;;;;;5.50;1.97;;;25.10;99.90;;;;;;4983259;28;21374;-51
2023/09/13 11:13:34;;;;;;;4.50;1.93;;;25.10;99.90;;;;;;4983221;28;20495;-54
2023/09/13 11:16:03;;;;;;;3.33;2.30;;;25.10;99.90;;;;;;4980221;28;21038;-54
2023/09/13 11:18:30;;;;;;;3.40;2.40;;;25.10;99.90;;;;;;4987330;28;20519;-53
2023/09/13 11:20:58;;;;;;;3.70;2.20;;;25.10;99.90;;;;;;4980021;28;20468;-55
2023/09/13 11:23:25;;;;;;;3.27;2.43;;;25.10;99.90;;;;;;4982934;28;20466;-56
2023/09/13 11:25:53;;;;;;;4.23;2.17;;;25.10;99.90;;;;;;4975683;28;20679;-52
2023/09/13 11:28:44;;;;;;;4.03;1.60;;;25.10;99.90;;;;;;4981436;28;20514;-55
2023/09/13 11:31:13;;;;;;;2.90;1.93;;;25.10;99.90;;;;;;4984661;28;20459;-54
2023/09/13 11:33:46;;;;;;;3.50;1.80;;;25.10;99.90;;;;;;4983604;28;20515;-51
2023/09/13 11:36:17;;;;;;;2.90;1.80;;;25.20;99.90;;;;;;4982349;28;20456;-51
2023/09/13 11:38:44;;;;;;;3.97;1.90;;;25.20;99.90;;;;;;4986299;28;20824;-50
2023/09/13 11:41:17;;;;;;;2.80;1.90;;;25.20;99.90;;;;;;4988177;28;21002;-50
2023/09/13 11:43:44;;;;;;;4.83;2.40;;;25.20;99.90;;;;;;4988600;28;20474;-46
2023/09/13 11:46:12;;;;;;;3.63;3.23;;;25.20;99.90;;;;;;4984153;28;20470;-46
2023/09/13 11:48:40;;;;;;;4.73;2.30;;;25.20;99.90;;;;;;4988844;28;20462;-54
2023/09/13 11:51:12;;;;;;;1.90;1.60;;;25.30;99.90;;;;;;4988270;28;20452;-49
2023/09/13 11:53:41;;;;;;;2.00;1.70;;;25.30;99.90;;;;;;4985893;28;20460;-52
2023/09/13 11:56:09;;;;;;;2.67;2.03;;;25.30;99.90;;;;;;4987660;28;20487;-46
2023/09/13 11:58:37;;;;;;;2.40;2.20;;;25.30;99.90;;;;;;4987341;28;20463;-49
2023/09/13 12:01:06;;;;;;;4.13;2.17;;;25.30;99.90;;;;;;4984916;28;20463;-52
2023/09/13 12:03:35;;;;;;;3.20;2.00;;;25.30;99.90;;;;;;4990583;28;21011;-50
2023/09/13 12:06:03;;;;;;;3.20;1.80;;;25.30;99.90;;;;;;4985032;28;20459;-50
2023/09/13 12:08:31;;;;;;;2.20;1.93;;;25.30;99.90;;;;;;4989406;28;20468;-54
2023/09/13 12:11:03;;;;;;;2.87;2.40;;;25.30;99.90;;;;;;4985524;28;20840;-52
2023/09/13 12:13:44;;;;;;;2.10;1.83;;;25.40;99.90;;;;;;4985832;28;20806;-53
2023/09/13 12:16:11;;;;;;;2.23;2.00;;;25.30;99.90;;;;;;4980984;28;20498;-55
2023/09/13 12:18:39;;;;;;;2.97;2.13;;;25.30;99.90;;;;;;4980249;28;20829;-55
2023/09/13 12:21:07;;;;;;;3.77;2.60;;;25.40;99.90;;;;;;4988397;28;20465;-54
2023/09/13 12:23:35;;;;;;;2.70;1.53;;;25.40;99.90;;;;;;4990382;28;20440;-52
2023/09/13 12:26:06;;;;;;;4.70;2.10;;;25.40;99.90;;;;;;4987931;28;20463;-51
2023/09/13 12:28:35;;;;;;;3.17;2.07;;;25.50;99.90;;;;;;4986081;28;20467;-54
2023/09/13 12:31:05;;;;;;;4.20;2.40;;;25.50;99.90;;;;;;4985703;28;21628;-49
2023/09/13 12:33:32;;;;;;;2.90;1.63;;;25.60;99.90;;;;;;4991409;28;20834;-49
2023/09/13 12:35:59;;;;;;;4.40;2.83;;;25.60;99.90;;;;;;4989320;28;20976;-51
2023/09/13 12:38:32;;;;;;;3.53;1.90;;;25.70;99.90;;;;;;4989719;28;20455;-50
2023/09/13 12:40:59;;;;;;;2.60;2.40;;;25.70;99.90;;;;;;4974523;28;22056;-52
2023/09/13 12:43:30;;;;;;;2.80;1.90;;;25.70;99.90;;;;;;4956704;28;20476;-50
2023/09/13 12:45:57;;;;;;;2.97;1.80;;;25.80;99.90;;;;;;4955477;28;21280;-54
2023/09/13 12:48:25;;;;;;;2.30;2.10;;;25.80;99.90;;;;;;4976533;28;20480;-52